Houston, Pennsylvania
Current Conditions -  °F | °C
As of 12:35 PM on Thursday 30 Oct 2014 (Local Time) from KAFJ Reporting Station
Broken Clouds Broken Clouds  
Wind Chill: 48°   Ceiling: 5000
Heat Index: 48°   Visibility: 10mi
Dew Point: 36°   Wind: 3mph
Humidity: 62%   Direction: 250°WSW
Pressure: 30.12"   Gusts: NA
Location:  40.25°N, 80.21°W
Report Text: KAFJ 301635Z AUTO 25003KT 10SM FEW031 SCT038 BKN050 09/02 A3012 RMK AO1
Loading
Personal Weather Stations






























Interactive Weather Map
Tropical Storm Tracking
New forecast layout! Learn more

10-Day Weather Forecast

Advertisements
Track Severe Weather on mobile